sensor_id;sensor_type;location;lat;lon;timestamp;temperature;humidity
26803;DHT22;14378;51.796;5.808;2022-09-21T00:03:08;12.00;99.90
26803;DHT22;14378;51.796;5.808;2022-09-21T00:05:10;12.00;99.90
26803;DHT22;14378;51.796;5.808;2022-09-21T00:07:11;12.00;99.90
26803;DHT22;14378;51.796;5.808;2022-09-21T00:09:12;12.00;99.90
26803;DHT22;14378;51.796;5.808;2022-09-21T00:11:39;12.00;99.90
26803;DHT22;14378;51.796;5.808;2022-09-21T00:13:43;12.00;99.90
26803;DHT22;14378;51.796;5.808;2022-09-21T00:15:46;12.00;99.90
26803;DHT22;14378;51.796;5.808;2022-09-21T00:17:50;12.00;99.90
26803;DHT22;14378;51.796;5.808;2022-09-21T00:19:55;12.00;99.90
26803;DHT22;14378;51.796;5.808;2022-09-21T00:21:56;12.00;99.90
26803;DHT22;14378;51.796;5.808;2022-09-21T00:23:57;12.10;99.90
26803;DHT22;14378;51.796;5.808;2022-09-21T00:26:13;12.10;99.90
26803;DHT22;14378;51.796;5.808;2022-09-21T00:28:15;12.00;99.90
26803;DHT22;14378;51.796;5.808;2022-09-21T00:30:16;12.00;99.90
26803;DHT22;14378;51.796;5.808;2022-09-21T00:32:18;12.10;99.90
26803;DHT22;14378;51.796;5.808;2022-09-21T00:34:19;12.10;99.90
26803;DHT22;14378;51.796;5.808;2022-09-21T00:36:23;12.10;99.90
26803;DHT22;14378;51.796;5.808;2022-09-21T00:38:24;12.00;99.90
26803;DHT22;14378;51.796;5.808;2022-09-21T00:40:25;12.00;99.90
26803;DHT22;14378;51.796;5.808;2022-09-21T00:42:31;12.10;99.90
26803;DHT22;14378;51.796;5.808;2022-09-21T00:44:35;12.00;99.90
26803;DHT22;14378;51.796;5.808;2022-09-21T00:46:37;12.00;99.90
26803;DHT22;14378;51.796;5.808;2022-09-21T00:48:39;12.00;99.90
26803;DHT22;14378;51.796;5.808;2022-09-21T00:50:47;12.00;99.90
26803;DHT22;14378;51.796;5.808;2022-09-21T00:52:54;12.00;99.90
26803;DHT22;14378;51.796;5.808;2022-09-21T00:55:04;12.00;99.90
26803;DHT22;14378;51.796;5.808;2022-09-21T00:57:08;12.00;99.90
26803;DHT22;14378;51.796;5.808;2022-09-21T00:59:11;11.90;99.90
26803;DHT22;14378;51.796;5.808;2022-09-21T01:01:13;12.00;99.90
26803;DHT22;14378;51.796;5.808;2022-09-21T01:03:18;11.90;99.90
26803;DHT22;14378;51.796;5.808;2022-09-21T01:05:20;11.90;99.90
26803;DHT22;14378;51.796;5.808;2022-09-21T01:07:25;11.90;99.90
26803;DHT22;14378;51.796;5.808;2022-09-21T01:09:27;11.90;99.90
26803;DHT22;14378;51.796;5.808;2022-09-21T01:11:53;11.90;99.90
26803;DHT22;14378;51.796;5.808;2022-09-21T01:16:27;11.90;99.90
26803;DHT22;14378;51.796;5.808;2022-09-21T01:30:01;11.80;99.90
26803;DHT22;14378;51.796;5.808;2022-09-21T01:32:35;11.80;99.90
26803;DHT22;14378;51.796;5.808;2022-09-21T01:34:42;11.80;99.90
26803;DHT22;14378;51.796;5.808;2022-09-21T01:36:47;11.80;99.90
26803;DHT22;14378;51.796;5.808;2022-09-21T01:39:03;11.80;99.90
26803;DHT22;14378;51.796;5.808;2022-09-21T01:41:08;11.80;99.90
26803;DHT22;14378;51.796;5.808;2022-09-21T01:43:21;11.80;99.90
26803;DHT22;14378;51.796;5.808;2022-09-21T01:45:34;11.80;99.90
26803;DHT22;14378;51.796;5.808;2022-09-21T01:47:40;11.70;99.90
26803;DHT22;14378;51.796;5.808;2022-09-21T01:49:51;11.70;99.90
26803;DHT22;14378;51.796;5.808;2022-09-21T01:52:01;11.70;99.90
26803;DHT22;14378;51.796;5.808;2022-09-21T01:54:19;11.70;99.90
26803;DHT22;14378;51.796;5.808;2022-09-21T01:56:35;11.70;99.90
26803;DHT22;14378;51.796;5.808;2022-09-21T01:58:56;11.70;99.90
26803;DHT22;14378;51.796;5.808;2022-09-21T02:00:59;11.60;99.90
26803;DHT22;14378;51.796;5.808;2022-09-21T02:03:20;11.60;99.90
26803;DHT22;14378;51.796;5.808;2022-09-21T02:05:25;11.60;99.90
26803;DHT22;14378;51.796;5.808;2022-09-21T02:07:28;11.60;99.90
26803;DHT22;14378;51.796;5.808;2022-09-21T02:09:29;11.60;99.90
26803;DHT22;14378;51.796;5.808;2022-09-21T02:11:30;11.50;99.90
26803;DHT22;14378;51.796;5.808;2022-09-21T02:13:37;11.50;99.90
26803;DHT22;14378;51.796;5.808;2022-09-21T02:18:07;11.50;99.90
26803;DHT22;14378;51.796;5.808;2022-09-21T02:20:24;11.40;99.90
26803;DHT22;14378;51.796;5.808;2022-09-21T02:25:17;11.30;99.90
26803;DHT22;14378;51.796;5.808;2022-09-21T02:27:44;11.30;99.90
26803;DHT22;14378;51.796;5.808;2022-09-21T02:29:50;11.30;99.90
26803;DHT22;14378;51.796;5.808;2022-09-21T02:34:44;11.20;99.90
26803;DHT22;14378;51.796;5.808;2022-09-21T02:36:49;11.20;99.90
26803;DHT22;14378;51.796;5.808;2022-09-21T02:39:10;11.20;99.90
26803;DHT22;14378;51.796;5.808;2022-09-21T02:41:19;11.20;99.90
26803;DHT22;14378;51.796;5.808;2022-09-21T02:43:26;11.10;99.90
26803;DHT22;14378;51.796;5.808;2022-09-21T02:45:43;11.10;99.90
26803;DHT22;14378;51.796;5.808;2022-09-21T02:50:08;11.10;99.90
26803;DHT22;14378;51.796;5.808;2022-09-21T02:52:13;11.00;99.90
26803;DHT22;14378;51.796;5.808;2022-09-21T02:54:23;11.00;99.90
26803;DHT22;14378;51.796;5.808;2022-09-21T02:56:26;10.90;99.90
26803;DHT22;14378;51.796;5.808;2022-09-21T02:58:28;10.90;99.90
26803;DHT22;14378;51.796;5.808;2022-09-21T03:00:33;10.90;99.90
26803;DHT22;14378;51.796;5.808;2022-09-21T03:02:40;10.80;99.90
26803;DHT22;14378;51.796;5.808;2022-09-21T03:04:43;10.90;99.90
26803;DHT22;14378;51.796;5.808;2022-09-21T03:06:49;10.80;99.90
26803;DHT22;14378;51.796;5.808;2022-09-21T03:08:51;10.80;99.90
26803;DHT22;14378;51.796;5.808;2022-09-21T03:10:52;10.80;99.90
26803;DHT22;14378;51.796;5.808;2022-09-21T03:12:56;10.70;99.90
26803;DHT22;14378;51.796;5.808;2022-09-21T03:14:59;10.70;99.90
26803;DHT22;14378;51.796;5.808;2022-09-21T03:16:59;10.70;99.90
26803;DHT22;14378;51.796;5.808;2022-09-21T03:19:01;10.70;99.90
26803;DHT22;14378;51.796;5.808;2022-09-21T03:21:02;10.60;99.90
26803;DHT22;14378;51.796;5.808;2022-09-21T03:23:03;10.60;99.90
26803;DHT22;14378;51.796;5.808;2022-09-21T03:25:06;10.60;99.90
26803;DHT22;14378;51.796;5.808;2022-09-21T03:27:08;10.60;99.90
26803;DHT22;14378;51.796;5.808;2022-09-21T03:29:09;10.50;99.90
26803;DHT22;14378;51.796;5.808;2022-09-21T03:31:10;10.50;99.90
26803;DHT22;14378;51.796;5.808;2022-09-21T03:33:12;10.50;99.90
26803;DHT22;14378;51.796;5.808;2022-09-21T03:35:13;10.50;99.90
26803;DHT22;14378;51.796;5.808;2022-09-21T03:37:14;10.40;99.90
26803;DHT22;14378;51.796;5.808;2022-09-21T03:39:16;10.40;99.90
26803;DHT22;14378;51.796;5.808;2022-09-21T03:41:17;10.40;99.90
26803;DHT22;14378;51.796;5.808;2022-09-21T03:43:21;10.30;99.90
26803;DHT22;14378;51.796;5.808;2022-09-21T03:45:23;10.30;99.90
26803;DHT22;14378;51.796;5.808;2022-09-21T03:47:27;10.30;99.90
26803;DHT22;14378;51.796;5.808;2022-09-21T03:49:28;10.30;99.90
26803;DHT22;14378;51.796;5.808;2022-09-21T03:51:30;10.20;99.90
26803;DHT22;14378;51.796;5.808;2022-09-21T03:53:31;10.30;99.90
26803;DHT22;14378;51.796;5.808;2022-09-21T03:55:33;10.20;99.90
26803;DHT22;14378;51.796;5.808;2022-09-21T03:57:37;10.20;99.90
26803;DHT22;14378;51.796;5.808;2022-09-21T03:59:38;10.20;99.90
26803;DHT22;14378;51.796;5.808;2022-09-21T04:01:39;10.10;99.90
26803;DHT22;14378;51.796;5.808;2022-09-21T04:03:40;10.10;99.90
26803;DHT22;14378;51.796;5.808;2022-09-21T04:05:41;10.10;99.90
26803;DHT22;14378;51.796;5.808;2022-09-21T04:07:43;10.10;99.90
26803;DHT22;14378;51.796;5.808;2022-09-21T04:09:45;10.10;99.90
26803;DHT22;14378;51.796;5.808;2022-09-21T04:11:46;10.10;99.90
26803;DHT22;14378;51.796;5.808;2022-09-21T04:13:51;10.00;99.90
26803;DHT22;14378;51.796;5.808;2022-09-21T04:15:56;10.00;99.90
26803;DHT22;14378;51.796;5.808;2022-09-21T04:17:57;10.00;99.90
26803;DHT22;14378;51.796;5.808;2022-09-21T04:19:59;10.00;99.90
26803;DHT22;14378;51.796;5.808;2022-09-21T04:22:01;10.00;99.90
26803;DHT22;14378;51.796;5.808;2022-09-21T04:24:02;9.90;99.90
26803;DHT22;14378;51.796;5.808;2022-09-21T04:26:03;9.90;99.90
26803;DHT22;14378;51.796;5.808;2022-09-21T04:28:04;9.90;99.90
26803;DHT22;14378;51.796;5.808;2022-09-21T04:30:06;9.90;99.90
26803;DHT22;14378;51.796;5.808;2022-09-21T04:32:08;9.80;99.90
26803;DHT22;14378;51.796;5.808;2022-09-21T04:34:12;9.80;99.90
26803;DHT22;14378;51.796;5.808;2022-09-21T04:36:13;9.80;99.90
26803;DHT22;14378;51.796;5.808;2022-09-21T04:38:14;9.80;99.90
26803;DHT22;14378;51.796;5.808;2022-09-21T04:40:15;9.80;99.90
26803;DHT22;14378;51.796;5.808;2022-09-21T04:42:17;9.70;99.90
26803;DHT22;14378;51.796;5.808;2022-09-21T04:44:18;9.70;99.90
26803;DHT22;14378;51.796;5.808;2022-09-21T04:46:20;9.70;99.90
26803;DHT22;14378;51.796;5.808;2022-09-21T04:48:23;9.70;99.90
26803;DHT22;14378;51.796;5.808;2022-09-21T04:50:24;9.70;99.90
26803;DHT22;14378;51.796;5.808;2022-09-21T04:52:37;9.70;99.90
26803;DHT22;14378;51.796;5.808;2022-09-21T04:54:38;9.70;99.90
26803;DHT22;14378;51.796;5.808;2022-09-21T04:56:40;9.70;99.90
26803;DHT22;14378;51.796;5.808;2022-09-21T04:58:41;9.70;99.90
26803;DHT22;14378;51.796;5.808;2022-09-21T05:00:49;9.70;99.90
26803;DHT22;14378;51.796;5.808;2022-09-21T05:02:50;9.60;99.90
26803;DHT22;14378;51.796;5.808;2022-09-21T05:04:53;9.60;99.90
26803;DHT22;14378;51.796;5.808;2022-09-21T05:06:55;9.60;99.90
26803;DHT22;14378;51.796;5.808;2022-09-21T05:08:58;9.60;99.90
26803;DHT22;14378;51.796;5.808;2022-09-21T05:11:20;9.50;99.90
26803;DHT22;14378;51.796;5.808;2022-09-21T05:13:22;9.50;99.90
26803;DHT22;14378;51.796;5.808;2022-09-21T05:15:23;9.50;99.90
26803;DHT22;14378;51.796;5.808;2022-09-21T05:17:24;9.50;99.90
26803;DHT22;14378;51.796;5.808;2022-09-21T05:19:25;9.40;99.90
26803;DHT22;14378;51.796;5.808;2022-09-21T05:21:26;9.40;99.90
26803;DHT22;14378;51.796;5.808;2022-09-21T05:23:29;9.40;99.90
26803;DHT22;14378;51.796;5.808;2022-09-21T05:25:30;9.40;99.90
26803;DHT22;14378;51.796;5.808;2022-09-21T05:27:31;9.40;99.90
26803;DHT22;14378;51.796;5.808;2022-09-21T05:29:32;9.40;99.90
26803;DHT22;14378;51.796;5.808;2022-09-21T05:31:50;9.40;99.90
26803;DHT22;14378;51.796;5.808;2022-09-21T05:34:04;9.40;99.90
26803;DHT22;14378;51.796;5.808;2022-09-21T05:38:37;9.40;99.90
26803;DHT22;14378;51.796;5.808;2022-09-21T05:40:38;9.30;99.90
26803;DHT22;14378;51.796;5.808;2022-09-21T05:42:39;9.30;99.90
26803;DHT22;14378;51.796;5.808;2022-09-21T05:44:42;9.30;99.90
26803;DHT22;14378;51.796;5.808;2022-09-21T05:47:00;9.30;99.90
26803;DHT22;14378;51.796;5.808;2022-09-21T05:49:30;9.30;99.90
26803;DHT22;14378;51.796;5.808;2022-09-21T06:03:58;9.20;99.90
26803;DHT22;14378;51.796;5.808;2022-09-21T06:05:59;9.20;99.90
26803;DHT22;14378;51.796;5.808;2022-09-21T06:08:00;9.20;99.90
26803;DHT22;14378;51.796;5.808;2022-09-21T06:10:01;9.20;99.90
26803;DHT22;14378;51.796;5.808;2022-09-21T06:12:01;9.20;99.90
26803;DHT22;14378;51.796;5.808;2022-09-21T06:14:03;9.20;99.90
26803;DHT22;14378;51.796;5.808;2022-09-21T06:16:05;9.20;99.90
26803;DHT22;14378;51.796;5.808;2022-09-21T06:18:07;9.20;99.90
26803;DHT22;14378;51.796;5.808;2022-09-21T06:20:08;9.20;99.90
26803;DHT22;14378;51.796;5.808;2022-09-21T06:22:09;9.20;99.90
26803;DHT22;14378;51.796;5.808;2022-09-21T06:24:11;9.30;99.90
26803;DHT22;14378;51.796;5.808;2022-09-21T06:26:11;9.30;99.90
26803;DHT22;14378;51.796;5.808;2022-09-21T06:28:12;9.30;99.90
26803;DHT22;14378;51.796;5.808;2022-09-21T06:30:14;9.30;99.90
26803;DHT22;14378;51.796;5.808;2022-09-21T06:32:15;9.30;99.90
26803;DHT22;14378;51.796;5.808;2022-09-21T06:34:16;9.30;99.90
26803;DHT22;14378;51.796;5.808;2022-09-21T06:36:17;9.30;99.90
26803;DHT22;14378;51.796;5.808;2022-09-21T06:38:18;9.40;99.90
26803;DHT22;14378;51.796;5.808;2022-09-21T06:40:19;9.40;99.90
26803;DHT22;14378;51.796;5.808;2022-09-21T06:42:20;9.50;99.90
26803;DHT22;14378;51.796;5.808;2022-09-21T06:44:24;9.50;99.90
26803;DHT22;14378;51.796;5.808;2022-09-21T06:46:25;9.50;99.90
26803;DHT22;14378;51.796;5.808;2022-09-21T06:48:27;9.60;99.90
26803;DHT22;14378;51.796;5.808;2022-09-21T06:50:28;9.60;99.90
26803;DHT22;14378;51.796;5.808;2022-09-21T06:52:29;9.70;99.90
26803;DHT22;14378;51.796;5.808;2022-09-21T06:54:30;9.70;99.90
26803;DHT22;14378;51.796;5.808;2022-09-21T06:56:30;9.80;99.90
26803;DHT22;14378;51.796;5.808;2022-09-21T06:58:34;9.80;99.90
26803;DHT22;14378;51.796;5.808;2022-09-21T07:00:37;9.80;99.90
26803;DHT22;14378;51.796;5.808;2022-09-21T07:02:44;9.90;99.90
26803;DHT22;14378;51.796;5.808;2022-09-21T07:04:45;10.00;99.90
26803;DHT22;14378;51.796;5.808;2022-09-21T07:06:46;10.00;99.90
26803;DHT22;14378;51.796;5.808;2022-09-21T07:08:50;10.10;99.90
26803;DHT22;14378;51.796;5.808;2022-09-21T07:10:53;10.10;99.90
26803;DHT22;14378;51.796;5.808;2022-09-21T07:13:04;10.20;99.90
26803;DHT22;14378;51.796;5.808;2022-09-21T07:15:08;10.20;99.90
26803;DHT22;14378;51.796;5.808;2022-09-21T07:17:12;10.30;99.90
26803;DHT22;14378;51.796;5.808;2022-09-21T07:19:14;10.30;99.90
26803;DHT22;14378;51.796;5.808;2022-09-21T07:21:15;10.40;99.90
26803;DHT22;14378;51.796;5.808;2022-09-21T07:23:18;10.50;99.90
26803;DHT22;14378;51.796;5.808;2022-09-21T07:25:19;10.50;99.90
26803;DHT22;14378;51.796;5.808;2022-09-21T07:27:20;10.60;99.90
26803;DHT22;14378;51.796;5.808;2022-09-21T07:29:22;10.60;99.90
26803;DHT22;14378;51.796;5.808;2022-09-21T07:31:23;10.70;99.90
26803;DHT22;14378;51.796;5.808;2022-09-21T07:33:24;10.80;99.90
26803;DHT22;14378;51.796;5.808;2022-09-21T07:35:25;10.80;99.90
26803;DHT22;14378;51.796;5.808;2022-09-21T07:37:27;10.90;99.90
26803;DHT22;14378;51.796;5.808;2022-09-21T07:39:28;11.00;99.90
26803;DHT22;14378;51.796;5.808;2022-09-21T07:41:29;11.00;99.90
26803;DHT22;14378;51.796;5.808;2022-09-21T07:43:29;11.10;99.90
26803;DHT22;14378;51.796;5.808;2022-09-21T07:45:30;11.20;99.90
26803;DHT22;14378;51.796;5.808;2022-09-21T07:47:31;11.20;99.90
26803;DHT22;14378;51.796;5.808;2022-09-21T07:49:32;11.30;99.90
26803;DHT22;14378;51.796;5.808;2022-09-21T07:51:33;11.40;99.90
26803;DHT22;14378;51.796;5.808;2022-09-21T07:53:38;11.40;99.90
26803;DHT22;14378;51.796;5.808;2022-09-21T07:55:43;11.50;99.90
26803;DHT22;14378;51.796;5.808;2022-09-21T07:57:44;11.60;99.90
26803;DHT22;14378;51.796;5.808;2022-09-21T08:00:04;11.60;99.90
26803;DHT22;14378;51.796;5.808;2022-09-21T08:02:12;11.70;99.90
26803;DHT22;14378;51.796;5.808;2022-09-21T08:04:13;11.80;99.90
26803;DHT22;14378;51.796;5.808;2022-09-21T08:06:13;11.90;99.90
26803;DHT22;14378;51.796;5.808;2022-09-21T08:08:15;12.00;99.90
26803;DHT22;14378;51.796;5.808;2022-09-21T08:10:16;12.00;99.90
26803;DHT22;14378;51.796;5.808;2022-09-21T08:12:18;12.10;99.90
26803;DHT22;14378;51.796;5.808;2022-09-21T08:14:20;12.20;99.90
26803;DHT22;14378;51.796;5.808;2022-09-21T08:16:22;12.30;99.90
26803;DHT22;14378;51.796;5.808;2022-09-21T08:18:23;12.30;99.90
26803;DHT22;14378;51.796;5.808;2022-09-21T08:20:24;12.40;99.90
26803;DHT22;14378;51.796;5.808;2022-09-21T08:22:24;12.50;99.90
26803;DHT22;14378;51.796;5.808;2022-09-21T08:24:25;12.60;99.90
26803;DHT22;14378;51.796;5.808;2022-09-21T08:26:26;12.60;99.90
26803;DHT22;14378;51.796;5.808;2022-09-21T08:28:28;12.70;99.90
26803;DHT22;14378;51.796;5.808;2022-09-21T08:30:29;12.80;99.90
26803;DHT22;14378;51.796;5.808;2022-09-21T08:32:31;12.90;99.90
26803;DHT22;14378;51.796;5.808;2022-09-21T08:34:32;13.00;99.90
26803;DHT22;14378;51.796;5.808;2022-09-21T08:36:33;13.00;99.90
26803;DHT22;14378;51.796;5.808;2022-09-21T08:38:35;13.10;99.90
26803;DHT22;14378;51.796;5.808;2022-09-21T08:40:39;13.20;99.90
26803;DHT22;14378;51.796;5.808;2022-09-21T08:44:47;13.40;99.90
26803;DHT22;14378;51.796;5.808;2022-09-21T08:47:02;13.50;99.90
26803;DHT22;14378;51.796;5.808;2022-09-21T08:49:30;13.60;99.90
26803;DHT22;14378;51.796;5.808;2022-09-21T08:51:36;13.80;99.90
26803;DHT22;14378;51.796;5.808;2022-09-21T08:53:44;13.90;99.90
26803;DHT22;14378;51.796;5.808;2022-09-21T08:55:46;14.10;99.90
26803;DHT22;14378;51.796;5.808;2022-09-21T08:57:47;14.20;99.90
26803;DHT22;14378;51.796;5.808;2022-09-21T08:59:49;14.40;99.90
26803;DHT22;14378;51.796;5.808;2022-09-21T09:06:34;14.80;99.90
26803;DHT22;14378;51.796;5.808;2022-09-21T09:08:57;15.00;99.90
26803;DHT22;14378;51.796;5.808;2022-09-21T09:17:43;15.60;99.90
26803;DHT22;14378;51.796;5.808;2022-09-21T09:20:12;15.80;99.90
26803;DHT22;14378;51.796;5.808;2022-09-21T09:22:23;16.10;99.90
26803;DHT22;14378;51.796;5.808;2022-09-21T09:24:35;16.30;99.90
26803;DHT22;14378;51.796;5.808;2022-09-21T09:26:59;16.50;99.90
26803;DHT22;14378;51.796;5.808;2022-09-21T09:31:57;17.00;99.90
26803;DHT22;14378;51.796;5.808;2022-09-21T09:36:14;17.50;99.90
26803;DHT22;14378;51.796;5.808;2022-09-21T09:38:39;17.60;99.90
26803;DHT22;14378;51.796;5.808;2022-09-21T09:43:06;18.00;99.90
26803;DHT22;14378;51.796;5.808;2022-09-21T09:50:20;18.80;99.90
26803;DHT22;14378;51.796;5.808;2022-09-21T09:52:25;19.00;99.90
26803;DHT22;14378;51.796;5.808;2022-09-21T09:54:33;19.10;99.90
26803;DHT22;14378;51.796;5.808;2022-09-21T09:56:34;19.10;99.90
26803;DHT22;14378;51.796;5.808;2022-09-21T09:58:57;19.10;99.90
26803;DHT22;14378;51.796;5.808;2022-09-21T10:00:59;19.10;99.90
26803;DHT22;14378;51.796;5.808;2022-09-21T10:03:00;19.10;99.90
26803;DHT22;14378;51.796;5.808;2022-09-21T10:05:04;19.10;99.90
26803;DHT22;14378;51.796;5.808;2022-09-21T10:07:05;19.00;99.90
26803;DHT22;14378;51.796;5.808;2022-09-21T10:09:18;18.90;99.90
26803;DHT22;14378;51.796;5.808;2022-09-21T10:11:20;18.90;99.90
26803;DHT22;14378;51.796;5.808;2022-09-21T10:13:30;18.90;99.90
26803;DHT22;14378;51.796;5.808;2022-09-21T10:15:33;18.90;99.90
26803;DHT22;14378;51.796;5.808;2022-09-21T10:17:40;18.80;99.90
26803;DHT22;14378;51.796;5.808;2022-09-21T10:19:45;18.80;99.90
26803;DHT22;14378;51.796;5.808;2022-09-21T10:21:46;18.80;99.90
26803;DHT22;14378;51.796;5.808;2022-09-21T10:23:55;18.70;99.90
26803;DHT22;14378;51.796;5.808;2022-09-21T10:26:08;18.80;99.90
26803;DHT22;14378;51.796;5.808;2022-09-21T10:28:12;18.90;99.90
26803;DHT22;14378;51.796;5.808;2022-09-21T10:32:30;18.90;99.90
26803;DHT22;14378;51.796;5.808;2022-09-21T10:34:32;18.90;99.90
26803;DHT22;14378;51.796;5.808;2022-09-21T10:36:37;18.90;99.90
26803;DHT22;14378;51.796;5.808;2022-09-21T10:38:38;19.00;99.90
26803;DHT22;14378;51.796;5.808;2022-09-21T10:40:45;19.10;99.90
26803;DHT22;14378;51.796;5.808;2022-09-21T10:42:54;19.00;99.90
26803;DHT22;14378;51.796;5.808;2022-09-21T10:45:18;19.00;99.90
26803;DHT22;14378;51.796;5.808;2022-09-21T10:47:41;18.90;99.90
26803;DHT22;14378;51.796;5.808;2022-09-21T10:49:45;18.90;99.90
26803;DHT22;14378;51.796;5.808;2022-09-21T10:51:50;18.90;99.90
26803;DHT22;14378;51.796;5.808;2022-09-21T10:53:53;18.80;99.90
26803;DHT22;14378;51.796;5.808;2022-09-21T10:55:58;18.80;99.90
26803;DHT22;14378;51.796;5.808;2022-09-21T10:58:00;18.80;99.90
26803;DHT22;14378;51.796;5.808;2022-09-21T11:04:45;18.70;99.90
26803;DHT22;14378;51.796;5.808;2022-09-21T11:06:54;18.60;99.90
26803;DHT22;14378;51.796;5.808;2022-09-21T11:11:29;18.50;99.90
26803;DHT22;14378;51.796;5.808;2022-09-21T11:13:35;18.50;99.90
26803;DHT22;14378;51.796;5.808;2022-09-21T11:16:09;18.50;99.90
26803;DHT22;14378;51.796;5.808;2022-09-21T11:26:54;18.70;99.90
26803;DHT22;14378;51.796;5.808;2022-09-21T11:29:10;18.90;99.90
26803;DHT22;14378;51.796;5.808;2022-09-21T11:38:57;19.40;99.90
26803;DHT22;14378;51.796;5.808;2022-09-21T11:41:17;19.70;99.90
26803;DHT22;14378;51.796;5.808;2022-09-21T11:45:48;20.60;99.90
26803;DHT22;14378;51.796;5.808;2022-09-21T11:55:19;22.00;99.90
26803;DHT22;14378;51.796;5.808;2022-09-21T11:57:36;22.40;99.90
26803;DHT22;14378;51.796;5.808;2022-09-21T11:59:45;22.80;99.90
26803;DHT22;14378;51.796;5.808;2022-09-21T12:04:59;23.50;99.90
26803;DHT22;14378;51.796;5.808;2022-09-21T12:09:45;24.00;98.80
26803;DHT22;14378;51.796;5.808;2022-09-21T12:16:31;24.80;98.60
26803;DHT22;14378;51.796;5.808;2022-09-21T12:18:43;25.10;98.30
26803;DHT22;14378;51.796;5.808;2022-09-21T12:25:48;25.00;94.40
26803;DHT22;14378;51.796;5.808;2022-09-21T12:28:01;24.80;94.10
26803;DHT22;14378;51.796;5.808;2022-09-21T12:30:11;24.60;93.80
26803;DHT22;14378;51.796;5.808;2022-09-21T12:32:24;24.40;92.50
26803;DHT22;14378;51.796;5.808;2022-09-21T12:34:39;24.00;92.70
26803;DHT22;14378;51.796;5.808;2022-09-21T12:36:49;23.60;93.50
26803;DHT22;14378;51.796;5.808;2022-09-21T12:39:06;23.30;94.50
26803;DHT22;14378;51.796;5.808;2022-09-21T12:41:25;23.00;95.10
26803;DHT22;14378;51.796;5.808;2022-09-21T12:46:02;23.00;95.60
26803;DHT22;14378;51.796;5.808;2022-09-21T12:52:45;23.40;92.20
26803;DHT22;14378;51.796;5.808;2022-09-21T12:57:03;23.70;92.90
26803;DHT22;14378;51.796;5.808;2022-09-21T13:01:28;24.00;91.90
26803;DHT22;14378;51.796;5.808;2022-09-21T13:03:36;24.10;90.60
26803;DHT22;14378;51.796;5.808;2022-09-21T13:12:31;24.50;85.00
26803;DHT22;14378;51.796;5.808;2022-09-21T13:14:46;24.50;86.40
26803;DHT22;14378;51.796;5.808;2022-09-21T13:16:52;24.60;89.60
26803;DHT22;14378;51.796;5.808;2022-09-21T13:19:03;24.80;89.80
26803;DHT22;14378;51.796;5.808;2022-09-21T13:21:18;25.00;91.40
26803;DHT22;14378;51.796;5.808;2022-09-21T13:23:29;25.10;91.50
26803;DHT22;14378;51.796;5.808;2022-09-21T13:25:33;25.30;92.00
26803;DHT22;14378;51.796;5.808;2022-09-21T13:28:05;25.40;92.20
26803;DHT22;14378;51.796;5.808;2022-09-21T13:33:27;25.50;90.10
26803;DHT22;14378;51.796;5.808;2022-09-21T13:40:55;26.10;89.20
26803;DHT22;14378;51.796;5.808;2022-09-21T13:43:14;26.20;85.50
26803;DHT22;14378;51.796;5.808;2022-09-21T13:47:30;26.30;88.80
26803;DHT22;14378;51.796;5.808;2022-09-21T13:49:47;26.30;87.40
26803;DHT22;14378;51.796;5.808;2022-09-21T13:54:12;26.20;85.70
26803;DHT22;14378;51.796;5.808;2022-09-21T13:56:23;26.20;85.60
26803;DHT22;14378;51.796;5.808;2022-09-21T13:58:28;26.20;84.80
26803;DHT22;14378;51.796;5.808;2022-09-21T14:02:59;26.00;82.80
26803;DHT22;14378;51.796;5.808;2022-09-21T14:07:30;26.00;85.40
26803;DHT22;14378;51.796;5.808;2022-09-21T14:09:55;25.90;80.40
26803;DHT22;14378;51.796;5.808;2022-09-21T14:12:00;25.90;83.00
26803;DHT22;14378;51.796;5.808;2022-09-21T14:16:56;25.60;84.80
26803;DHT22;14378;51.796;5.808;2022-09-21T14:18:58;25.40;83.40
26803;DHT22;14378;51.796;5.808;2022-09-21T14:21:16;25.20;87.40
26803;DHT22;14378;51.796;5.808;2022-09-21T14:25:25;24.80;87.30
26803;DHT22;14378;51.796;5.808;2022-09-21T14:27:30;24.60;87.00
26803;DHT22;14378;51.796;5.808;2022-09-21T14:29:49;24.40;88.70
26803;DHT22;14378;51.796;5.808;2022-09-21T14:31:58;24.20;86.90
26803;DHT22;14378;51.796;5.808;2022-09-21T14:34:02;24.00;88.30
26803;DHT22;14378;51.796;5.808;2022-09-21T14:36:07;23.80;85.60
26803;DHT22;14378;51.796;5.808;2022-09-21T14:38:28;23.60;87.40
26803;DHT22;14378;51.796;5.808;2022-09-21T14:40:37;23.40;85.10
26803;DHT22;14378;51.796;5.808;2022-09-21T14:43:18;23.20;85.90
26803;DHT22;14378;51.796;5.808;2022-09-21T14:45:52;23.00;88.70
26803;DHT22;14378;51.796;5.808;2022-09-21T14:48:28;22.90;87.60
26803;DHT22;14378;51.796;5.808;2022-09-21T14:50:38;22.70;84.10
26803;DHT22;14378;51.796;5.808;2022-09-21T14:53:17;22.50;88.00
26803;DHT22;14378;51.796;5.808;2022-09-21T15:00:34;22.30;91.50
26803;DHT22;14378;51.796;5.808;2022-09-21T15:02:38;22.20;92.00
26803;DHT22;14378;51.796;5.808;2022-09-21T15:04:42;22.20;91.80
26803;DHT22;14378;51.796;5.808;2022-09-21T15:06:53;22.10;92.10
26803;DHT22;14378;51.796;5.808;2022-09-21T15:12:27;21.90;91.20
26803;DHT22;14378;51.796;5.808;2022-09-21T15:14:39;21.80;91.60
26803;DHT22;14378;51.796;5.808;2022-09-21T15:16:45;21.70;90.80
26803;DHT22;14378;51.796;5.808;2022-09-21T15:18:48;21.60;91.40
26803;DHT22;14378;51.796;5.808;2022-09-21T15:20:59;21.50;91.50
26803;DHT22;14378;51.796;5.808;2022-09-21T15:23:01;21.40;91.20
26803;DHT22;14378;51.796;5.808;2022-09-21T15:25:12;21.30;91.80
26803;DHT22;14378;51.796;5.808;2022-09-21T15:27:18;21.30;92.50
26803;DHT22;14378;51.796;5.808;2022-09-21T15:29:24;21.20;92.40
26803;DHT22;14378;51.796;5.808;2022-09-21T15:31:34;21.20;92.40
26803;DHT22;14378;51.796;5.808;2022-09-21T15:33:37;21.10;92.00
26803;DHT22;14378;51.796;5.808;2022-09-21T15:35:38;21.00;92.40
26803;DHT22;14378;51.796;5.808;2022-09-21T15:37:46;20.90;91.90
26803;DHT22;14378;51.796;5.808;2022-09-21T15:39:58;20.80;92.30
26803;DHT22;14378;51.796;5.808;2022-09-21T15:42:12;20.70;93.00
26803;DHT22;14378;51.796;5.808;2022-09-21T15:44:21;20.60;93.80
26803;DHT22;14378;51.796;5.808;2022-09-21T15:46:23;20.50;94.10
26803;DHT22;14378;51.796;5.808;2022-09-21T15:48:26;20.50;93.70
26803;DHT22;14378;51.796;5.808;2022-09-21T15:50:33;20.40;93.50
26803;DHT22;14378;51.796;5.808;2022-09-21T15:52:39;20.40;93.10
26803;DHT22;14378;51.796;5.808;2022-09-21T15:54:47;20.40;93.50
26803;DHT22;14378;51.796;5.808;2022-09-21T15:56:55;20.30;94.20
26803;DHT22;14378;51.796;5.808;2022-09-21T15:59:03;20.30;93.70
26803;DHT22;14378;51.796;5.808;2022-09-21T16:01:14;20.20;93.40
26803;DHT22;14378;51.796;5.808;2022-09-21T16:03:18;20.10;93.60
26803;DHT22;14378;51.796;5.808;2022-09-21T16:05:22;20.10;93.50
26803;DHT22;14378;51.796;5.808;2022-09-21T16:07:36;20.10;94.50